LDZA Airport Information

Runway Information
Runway 04 Length 10669 ft width 148 ft
Elevation 353 ft Threshold ft Heading 47
Runway 22 Length 10669 ft Width 148 ft
Elevation 348 ft Threshold ft Heading 227
Airport Frequencies
Type APP Name APP Frequency 120.7 MHZ
Type ATIS Name ATIS Frequency 124.375 MHZ
Type GND Name GND Frequency 121.85 MHZ
Type INFO Name INFO Frequency 124.85 MHZ
Type RDR Name RADAR Frequency 120.7 MHZ
Type TWR Name TWR Frequency 118.3 MHZ
Airport Navaids
Type DME Name Iza Frequency 109500 KHZ
Type NDB Name Pisarovina Frequency 424 KHZ
Type NDB Name S.kKaljevec Frequency 350 KHZ
Type NDB Name Velika Gorica Frequency 325 KHZ
Type VOR-DME Name Zagreb Frequency 113700 KHZ
Type NDB Name Zagreb Frequency 367 KHZ
Airport Weather Information & NOTAM
ADDS - METARS form results

(2259 UTC 09 August 2022)
Data provider http://aviationweather.gov/metar/data/
 
METAR text: LDZA 092230Z VRB02KT CAVOK 20/12 Q1021 NOSIG
Conditions at: LDZA (ZAGREB/PLESO , HR) observed 2230 UTC 09 August 2022
Temperature: 20.0°C (68°F)
Dewpoint: 12.0°C (54°F) [RH = 60%]
Pressure (altimeter): 30.15 inches Hg (1021.0 mb)
Winds: variable direction winds at 2 MPH (2 knots; 1.0 m/s)
Visibility: 6 or more miles (10+ km)
Ceiling: ceiling and visibility are OK
Clouds: unknown
Weather: no significant weather observed at this time

METAR text: LDZA 092200Z 03004KT 350V070 CAVOK 21/12 Q1021 NOSIG
Conditions at: LDZA (ZAGREB/PLESO , HR) observed 2200 UTC 09 August 2022
Temperature: 21.0°C (70°F)
Dewpoint: 12.0°C (54°F) [RH = 56%]
Pressure (altimeter): 30.15 inches Hg (1021.0 mb)
Winds: from the NNE (30 degrees) at 5 MPH (4 knots; 2.1 m/s)
Visibility: 6 or more miles (10+ km)
Ceiling: ceiling and visibility are OK
Clouds: unknown
Weather: no significant weather observed at this time

Forecast for: LDZA (ZAGREB/PLESO , HR)
Text: TAF LDZA 091725Z 0918/1018 05009KT CAVOK TX30/1013Z TN16/1003Z
Forecast period: 1800 UTC 09 August 2022 to 1800 UTC 10 August 2022
Forecast type: FROM: standard forecast or significant change
Winds: from the NE (50 degrees) at 10 MPH (9 knots; 4.6 m/s)
Visibility: 6 or more miles (10+ km)
Ceiling: unknown
Clouds: missing
Weather: no significant weather forecast for this period
Text: PROB30
Forecast period: 0400 to 0700 UTC 10 August 2022
Forecast type: TEMPORARY: The following changes expected for less than half the time period
Visibility: missing
Ceiling: at least 12,000 feet AGL
Clouds: few clouds at 5000 feet AGL
Weather: SHRA  (rain showers)